Dirección General De Aeronáutica Civil

Dirección Meteorológica de Chile - Servicios Climáticos

Informe General de Control de Calidad de la Estación

Listado de niveles de control de calidad para algunos parámetros
Estación Longotoma Liceo Agrícola (320048)
Fecha de Revisión de los datos :

Elementos

Registros Niveles de Control Total
Nivel 0 Nivel 1 Nivel 2 Nivel 3 Errores Porcentaje
01 Temperatura del Aire Seco 11.035 0 . 0 . 0 . 0 . 0 0.00 %
02 Humedad Relativa del Aire 0 0 . 0 . 0 . 0 . 0 .
03 Temperatura Máxima PM 3.860 0 . 0 . 22 0.57 % 0 . 22 0.57 %
04 Temperatura Mínima AM 3.930 0 . 0 . 14 0.36 % 0 . 14 0.36 %
05 Viento a 10 m. de Altura 0 0 . 0 . 0 . 0 . 0 .

Totales

18.825 . 0.0000 % . 0.0000 % . 0.1912 % . 0.0000 % 36 0.1912 %

Detalle de Errores Encontrados

Nivel Fecha del Dato Descripción Información Error Fecha Ingreso
2 1998-07-21 12:00:00 Temperatura 11.4 del 21-07-1998 12:00, Menor que la Mínima 11.6 21-07-1998 12:00 11.4 -- 11.6 2023-11-22 01:41:00
2 2000-07-05 12:00:00 Temperatura 9.0 del 05-07-2000 12:00, Menor que la Mínima 9.2 05-07-2000 12:00 9.0 -- 9.2 2023-11-22 01:42:00
2 2000-08-31 12:00:00 Temperatura 5.6 del 31-08-2000 12:00, Menor que la Mínima 7.6 31-08-2000 12:00 5.6 -- 7.6 2023-11-22 01:42:00
2 2001-01-02 12:00:00 Temperatura 14.0 del 02-01-2001 12:00, Menor que la Mínima 14.3 02-01-2001 12:00 14.0 -- 14.3 2023-11-22 01:42:00
2 2001-01-08 12:00:00 Temperatura 16.4 del 08-01-2001 12:00, Menor que la Mínima 16.5 08-01-2001 12:00 16.4 -- 16.5 2023-11-22 01:42:00
2 2001-01-24 12:00:00 Temperatura 15.6 del 24-01-2001 12:00, Menor que la Mínima 16.0 24-01-2001 12:00 15.6 -- 16.0 2023-11-22 01:42:00
2 2001-01-27 12:00:00 Temperatura 15.2 del 27-01-2001 12:00, Menor que la Mínima 16.0 27-01-2001 12:00 15.2 -- 16.0 2023-11-22 01:42:00
2 2001-03-05 12:00:00 Temperatura 14.6 del 05-03-2001 12:00, Menor que la Mínima 15.0 05-03-2001 12:00 14.6 -- 15.0 2023-11-22 01:43:00
2 2001-03-21 12:00:00 Temperatura 13.8 del 21-03-2001 12:00, Menor que la Mínima 15.0 21-03-2001 12:00 13.8 -- 15.0 2023-11-22 01:43:00
2 2001-03-22 12:00:00 Temperatura 14.2 del 22-03-2001 12:00, Menor que la Mínima 15.0 22-03-2001 12:00 14.2 -- 15.0 2023-11-22 01:43:00
2 2001-03-29 12:00:00 Temperatura 14.2 del 29-03-2001 12:00, Menor que la Mínima 15.1 29-03-2001 12:00 14.2 -- 15.1 2023-11-22 01:43:00
2 2001-03-30 12:00:00 Temperatura 14.8 del 30-03-2001 12:00, Menor que la Mínima 15.6 30-03-2001 12:00 14.8 -- 15.6 2023-11-22 01:43:00
2 2002-01-23 12:00:00 Temperatura 15.2 del 23-01-2002 12:00, Menor que la Mínima 16.0 23-01-2002 12:00 15.2 -- 16.0 2023-11-22 01:43:00
2 2002-12-11 12:00:00 Temperatura 13.8 del 11-12-2002 12:00, Menor que la Mínima 23.2 11-12-2002 12:00 13.8 -- 23.2 2023-11-22 01:44:00
2 2000-06-13 00:00:00 Temperatura 15.8 del 12-06-2000 18:00, Mayor que la Máxima 15.2 13-06-2000 00:00 15.8 -- 15.2 2023-11-22 01:42:00
2 2000-07-23 00:00:00 Temperatura 13.0 del 22-07-2000 18:00, Mayor que la Máxima 12.4 23-07-2000 00:00 13.0 -- 12.4 2023-11-22 01:42:00
2 2001-01-28 00:00:00 Temperatura 20.4 del 27-01-2001 18:00, Mayor que la Máxima 19.0 28-01-2001 00:00 20.4 -- 19.0 2023-11-22 01:42:00
2 2001-01-30 00:00:00 Temperatura 19.2 del 29-01-2001 18:00, Mayor que la Máxima 19.0 30-01-2001 00:00 19.2 -- 19.0 2023-11-22 01:42:00
2 2001-04-11 00:00:00 Temperatura 20.2 del 10-04-2001 18:00, Mayor que la Máxima 20.0 11-04-2001 00:00 20.2 -- 20.0 2023-11-22 01:43:00
2 2001-04-22 00:00:00 Temperatura 17.0 del 21-04-2001 18:00, Mayor que la Máxima 16.8 22-04-2001 00:00 17.0 -- 16.8 2023-11-22 01:43:00
2 2001-05-31 00:00:00 Temperatura 15.2 del 30-05-2001 18:00, Mayor que la Máxima 14.8 31-05-2001 00:00 15.2 -- 14.8 2023-11-22 01:43:00
2 2001-06-30 00:00:00 Temperatura 15.6 del 29-06-2001 18:00, Mayor que la Máxima 15.2 30-06-2001 00:00 15.6 -- 15.2 2023-11-22 01:43:00
2 2001-07-16 00:00:00 Temperatura 20.6 del 15-07-2001 18:00, Mayor que la Máxima 13.8 16-07-2001 00:00 20.6 -- 13.8 2023-11-22 01:43:00
2 2001-11-08 00:00:00 Temperatura 17.8 del 07-11-2001 18:00, Mayor que la Máxima 16.4 08-11-2001 00:00 17.8 -- 16.4 2023-11-22 01:43:00
2 2002-04-25 00:00:00 Temperatura 28.2 del 24-04-2002 18:00, Mayor que la Máxima 20.0 25-04-2002 00:00 28.2 -- 20.0 2023-11-22 01:43:00
2 2002-05-21 00:00:00 Temperatura 15.8 del 20-05-2002 18:00, Mayor que la Máxima 15.2 21-05-2002 00:00 15.8 -- 15.2 2023-11-22 01:43:00
2 2002-05-25 00:00:00 Temperatura 16.0 del 24-05-2002 18:00, Mayor que la Máxima 12.4 25-05-2002 00:00 16.0 -- 12.4 2023-11-22 01:43:00
2 2002-06-24 00:00:00 Temperatura 12.2 del 23-06-2002 18:00, Mayor que la Máxima 11.6 24-06-2002 00:00 12.2 -- 11.6 2023-11-22 01:44:00
2 2002-08-12 00:00:00 Temperatura 14.8 del 11-08-2002 18:00, Mayor que la Máxima 14.0 12-08-2002 00:00 14.8 -- 14.0 2023-11-22 01:44:00
2 2003-03-09 00:00:00 Temperatura 21.6 del 08-03-2003 18:00, Mayor que la Máxima 19.8 09-03-2003 00:00 21.6 -- 19.8 2023-11-22 01:44:00
2 2003-03-15 00:00:00 Temperatura 18.4 del 14-03-2003 18:00, Mayor que la Máxima 17.6 15-03-2003 00:00 18.4 -- 17.6 2023-11-22 01:44:00
2 2003-03-27 00:00:00 Temperatura 21.0 del 26-03-2003 18:00, Mayor que la Máxima 19.4 27-03-2003 00:00 21.0 -- 19.4 2023-11-22 01:44:00
2 2003-07-27 00:00:00 Temperatura 19.6 del 27-07-2003 00:00, Mayor que la Máxima 18.0 27-07-2003 00:00 19.6 -- 18.0 2023-11-22 01:44:00
2 2003-08-02 00:00:00 Temperatura 14.2 del 01-08-2003 18:00, Mayor que la Máxima 13.8 02-08-2003 00:00 14.2 -- 13.8 2023-11-22 01:44:00
2 2003-08-23 00:00:00 Temperatura 13.2 del 22-08-2003 18:00, Mayor que la Máxima 13.0 23-08-2003 00:00 13.2 -- 13.0 2023-11-22 01:44:00
2 2004-03-25 00:00:00 Temperatura 18.8 del 24-03-2004 18:00, Mayor que la Máxima 18.4 25-03-2004 00:00 18.8 -- 18.4 2023-12-29 22:20:00
Errores del Nivel 36
Informe generado el 05-03-2024 10:39
Requerimiento: RE6001